Ruleville, Mississippi
Current Conditions -  °F | °C
As of 4:35 PM on Saturday 25 Oct 2014 (Local Time) from KRNV Reporting Station
Clear Clear  
Wind Chill: 28°   Ceiling: Unl
Heat Index: 28°   Visibility: 10mi
Dew Point: 18°   Wind: 7mph
Humidity: 57%   Direction: 270°W
Pressure: 30.04"   Gusts: NA
Location:  33.73°N, 90.55°W
Report Text: KRNV 252135Z AUTO 27006KT 10SM CLR 28/18 A3004 RMK AO2 T02750183
Loading
Personal Weather Stations






























Interactive Weather Map
Tropical Storm Tracking
New forecast layout! Learn more

10-Day Weather Forecast

Advertisements
Track Severe Weather on mobile